createdAt,value
2018-06-13T00:00:48.510Z,6.58
2018-06-13T00:03:20.075Z,7.22
2018-06-13T00:05:51.475Z,8.08
2018-06-13T00:08:22.621Z,7.70
2018-06-13T00:10:54.119Z,8.25
2018-06-13T00:13:25.392Z,6.17
2018-06-13T00:15:56.630Z,6.85
2018-06-13T00:18:27.875Z,6.15
2018-06-13T00:20:59.287Z,8.17
2018-06-13T00:23:30.850Z,5.53
2018-06-13T00:26:02.351Z,6.10
2018-06-13T00:28:33.731Z,7.28
2018-06-13T00:31:05.030Z,7.05
2018-06-13T00:33:36.283Z,7.65
2018-06-13T00:36:07.636Z,6.55
2018-06-13T00:38:39.030Z,10.72
2018-06-13T00:41:10.387Z,9.57
2018-06-13T00:43:41.664Z,5.67
2018-06-13T00:46:12.817Z,6.83
2018-06-13T00:48:44.535Z,7.37
2018-06-13T00:51:15.893Z,7.12
2018-06-13T00:53:47.580Z,6.40
2018-06-13T00:56:30.973Z,5.50
2018-06-13T00:59:02.627Z,11.43
2018-06-13T01:01:33.788Z,7.40
2018-06-13T01:04:05.454Z,6.07
2018-06-13T01:06:36.779Z,7.05
2018-06-13T01:09:09.531Z,7.37
2018-06-13T01:11:40.882Z,6.47
2018-06-13T01:14:12.667Z,8.67
2018-06-13T01:16:44.090Z,7.33
2018-06-13T01:19:15.410Z,7.97
2018-06-13T01:21:47.375Z,7.10
2018-06-13T01:24:18.487Z,6.42
2018-06-13T01:26:49.750Z,6.13
2018-06-13T01:29:21.108Z,6.37
2018-06-13T01:31:52.730Z,6.37
2018-06-13T01:34:23.860Z,6.42
2018-06-13T01:36:55.561Z,5.40
2018-06-13T01:39:26.698Z,7.62
2018-06-13T01:41:58.049Z,7.90
2018-06-13T01:44:29.449Z,17.55
2018-06-13T01:47:00.840Z,19.55
2018-06-13T01:49:32.154Z,9.85
2018-06-13T01:52:07.736Z,11.15
2018-06-13T01:54:38.888Z,11.73
2018-06-13T01:57:10.009Z,12.55
2018-06-13T01:59:41.715Z,9.30
2018-06-13T02:02:13.322Z,6.23
2018-06-13T02:04:44.966Z,6.57
2018-06-13T02:07:17.151Z,7.33
2018-06-13T02:09:48.482Z,6.60
2018-06-13T02:12:20.307Z,7.17
2018-06-13T02:14:51.843Z,6.40
2018-06-13T02:17:23.129Z,5.77
2018-06-13T02:19:54.375Z,5.55
2018-06-13T02:22:25.744Z,6.47
2018-06-13T02:24:57.132Z,6.13
2018-06-13T02:27:28.548Z,7.70
2018-06-13T02:29:59.663Z,6.10
2018-06-13T02:32:31.189Z,8.23
2018-06-13T02:35:02.825Z,6.10
2018-06-13T02:37:34.586Z,6.45
2018-06-13T02:40:06.129Z,8.50
2018-06-13T02:42:37.342Z,8.58
2018-06-13T02:45:08.703Z,6.73
2018-06-13T02:47:39.931Z,6.83
2018-06-13T02:50:11.278Z,6.83
2018-06-13T02:52:42.828Z,5.83
2018-06-13T02:55:14.281Z,6.77
2018-06-13T02:57:45.943Z,8.23
2018-06-13T03:00:17.219Z,6.62
2018-06-13T03:02:48.707Z,5.73
2018-06-13T03:05:19.975Z,6.30
2018-06-13T03:07:51.375Z,6.57
2018-06-13T03:10:22.472Z,5.20
2018-06-13T03:12:53.899Z,9.40
2018-06-13T03:15:25.140Z,6.30
2018-06-13T03:17:57.532Z,7.40
2018-06-13T03:20:29.850Z,6.47
2018-06-13T03:23:01.247Z,6.17
2018-06-13T03:25:32.639Z,7.00
2018-06-13T03:28:03.471Z,8.40
2018-06-13T03:30:34.690Z,9.10
2018-06-13T03:33:06.085Z,6.90
2018-06-13T03:35:37.295Z,11.03
2018-06-13T03:38:08.575Z,6.23
2018-06-13T03:40:39.653Z,6.80
2018-06-13T03:43:11.377Z,7.40
2018-06-13T03:45:42.976Z,6.10
2018-06-13T03:48:14.376Z,8.93
2018-06-13T03:50:46.074Z,6.93
2018-06-13T03:53:17.110Z,7.35
2018-06-13T03:55:48.371Z,8.20
2018-06-13T03:58:20.248Z,8.58
2018-06-13T04:00:51.571Z,5.92
2018-06-13T04:03:22.946Z,7.47
2018-06-13T04:05:54.283Z,6.40
2018-06-13T04:08:25.700Z,6.25
2018-06-13T04:10:57.104Z,7.58
2018-06-13T04:13:28.393Z,6.67
2018-06-13T04:15:59.953Z,6.33
2018-06-13T04:18:31.069Z,7.85
2018-06-13T04:21:02.096Z,8.75
2018-06-13T04:23:33.332Z,7.05
2018-06-13T04:26:04.555Z,8.38
2018-06-13T04:28:35.888Z,11.90
2018-06-13T04:31:07.555Z,6.10
2018-06-13T04:33:39.363Z,6.20
2018-06-13T04:36:10.876Z,6.67
2018-06-13T04:38:41.986Z,8.73
2018-06-13T04:41:13.263Z,10.00
2018-06-13T04:43:44.408Z,7.67
2018-06-13T04:46:15.695Z,7.78
2018-06-13T04:48:47.068Z,6.08
2018-06-13T04:51:18.604Z,6.72
2018-06-13T04:53:50.516Z,5.62
2018-06-13T04:56:21.931Z,5.42
2018-06-13T04:58:53.383Z,9.10
2018-06-13T05:01:24.784Z,5.70
2018-06-13T05:03:56.110Z,6.87
2018-06-13T05:06:27.268Z,7.08
2018-06-13T05:08:58.613Z,5.50
2018-06-13T05:11:29.900Z,4.97
2018-06-13T05:14:01.399Z,5.15
2018-06-13T05:16:32.833Z,5.62
2018-06-13T05:19:04.299Z,5.97
2018-06-13T05:21:36.333Z,5.67
2018-06-13T05:24:07.748Z,5.33
2018-06-13T05:26:38.676Z,5.28
2018-06-13T05:29:09.921Z,5.47
2018-06-13T05:31:41.320Z,20.95
2018-06-13T05:34:12.583Z,59.18
2018-06-13T05:36:43.720Z,27.67
2018-06-13T05:39:14.990Z,27.65
2018-06-13T05:41:46.729Z,42.48
2018-06-13T05:44:17.756Z,15.03
2018-06-13T05:46:49.085Z,10.48
2018-06-13T05:49:20.256Z,8.48
2018-06-13T05:51:51.903Z,12.53
2018-06-13T05:54:23.379Z,10.55
2018-06-13T05:56:54.769Z,13.95
2018-06-13T05:59:26.199Z,5.03
2018-06-13T06:01:58.094Z,6.15
2018-06-13T06:04:29.566Z,9.93
2018-06-13T06:07:00.776Z,5.92
2018-06-13T06:09:31.969Z,6.35
2018-06-13T06:12:03.405Z,8.70
2018-06-13T06:14:34.989Z,5.87
2018-06-13T06:17:06.473Z,7.28
2018-06-13T06:19:37.852Z,5.72
2018-06-13T06:22:09.312Z,7.17
2018-06-13T06:24:40.659Z,6.65
2018-06-13T06:27:12.562Z,14.13
2018-06-13T06:29:44.009Z,15.70
2018-06-13T06:32:15.351Z,14.40
2018-06-13T06:34:46.591Z,16.23
2018-06-13T06:37:18.005Z,18.75
2018-06-13T06:39:49.547Z,16.30
2018-06-13T06:42:20.875Z,14.25
2018-06-13T06:44:52.122Z,15.48
2018-06-13T06:47:23.419Z,16.35
2018-06-13T06:49:54.513Z,17.48
2018-06-13T06:52:25.738Z,14.10
2018-06-13T06:54:57.009Z,12.65
2018-06-13T06:57:28.148Z,12.78
2018-06-13T06:59:59.535Z,13.80
2018-06-13T07:02:30.864Z,12.43
2018-06-13T07:05:02.285Z,12.10
2018-06-13T07:07:33.042Z,13.10
2018-06-13T07:10:04.531Z,13.93
2018-06-13T07:12:36.018Z,11.38
2018-06-13T07:15:07.351Z,13.98
2018-06-13T07:17:39.408Z,12.40
2018-06-13T07:20:10.532Z,13.48
2018-06-13T07:22:42.085Z,12.33
2018-06-13T07:25:13.463Z,16.95
2018-06-13T07:27:45.020Z,18.27
2018-06-13T07:30:16.224Z,12.35
2018-06-13T07:32:47.397Z,13.35
2018-06-13T07:35:18.720Z,15.85
2018-06-13T07:37:50.096Z,14.70
2018-06-13T07:40:21.502Z,13.22
2018-06-13T07:42:52.698Z,11.80
2018-06-13T07:45:24.034Z,13.05
2018-06-13T07:47:55.412Z,10.40
2018-06-13T07:50:26.707Z,10.43
2018-06-13T07:52:58.251Z,12.47
2018-06-13T07:55:29.823Z,8.50
2018-06-13T07:58:01.183Z,8.63
2018-06-13T08:00:32.283Z,7.28
2018-06-13T08:03:03.471Z,7.80
2018-06-13T08:05:34.833Z,6.50
2018-06-13T08:08:05.980Z,8.93
2018-06-13T08:10:37.321Z,6.92
2018-06-13T08:13:08.838Z,6.78
2018-06-13T08:15:40.289Z,6.83
2018-06-13T08:18:11.729Z,6.12
2018-06-13T08:20:43.256Z,6.65
2018-06-13T08:23:15.428Z,6.83
2018-06-13T08:25:47.915Z,7.78
2018-06-13T08:28:19.217Z,6.72
2018-06-13T08:30:50.574Z,6.70
2018-06-13T08:33:22.288Z,6.60
2018-06-13T08:35:53.768Z,8.38
2018-06-13T08:38:25.655Z,10.13
2018-06-13T08:40:57.799Z,7.70
2018-06-13T08:43:29.727Z,7.75
2018-06-13T08:46:01.085Z,6.67
2018-06-13T08:48:32.535Z,6.92
2018-06-13T08:51:03.939Z,7.35
2018-06-13T08:53:35.153Z,6.65
2018-06-13T08:56:06.968Z,7.65
2018-06-13T08:58:38.263Z,6.75
2018-06-13T09:01:09.569Z,6.72
2018-06-13T09:03:40.903Z,7.58
2018-06-13T09:06:12.068Z,9.10
2018-06-13T09:08:43.611Z,11.10
2018-06-13T09:11:15.259Z,10.88
2018-06-13T09:13:46.771Z,8.83
2018-06-13T09:16:18.017Z,9.40
2018-06-13T09:18:49.417Z,9.98
2018-06-13T09:21:20.961Z,9.83
2018-06-13T09:23:52.463Z,14.75
2018-06-13T09:26:24.831Z,15.10
2018-06-13T09:28:56.145Z,9.23
2018-06-13T09:31:27.437Z,8.90
2018-06-13T09:33:59.276Z,9.13
2018-06-13T09:36:30.595Z,9.48
2018-06-13T09:39:01.892Z,9.23
2018-06-13T09:41:33.582Z,9.80
2018-06-13T09:44:05.130Z,8.83
2018-06-13T09:46:36.399Z,8.63
2018-06-13T09:49:07.790Z,10.28
2018-06-13T09:51:39.201Z,8.08
2018-06-13T09:54:10.478Z,8.48
2018-06-13T09:56:41.858Z,7.05
2018-06-13T09:59:14.184Z,7.75
2018-06-13T10:01:53.118Z,8.08
2018-06-13T10:04:24.040Z,8.80
2018-06-13T10:06:56.125Z,8.45
2018-06-13T10:09:27.440Z,7.87
2018-06-13T10:11:58.915Z,8.75
2018-06-13T10:14:30.257Z,9.35
2018-06-13T10:17:01.657Z,8.48
2018-06-13T10:19:33.010Z,9.85
2018-06-13T10:22:04.308Z,12.45
2018-06-13T10:24:35.472Z,19.00
2018-06-13T10:27:11.715Z,12.35
2018-06-13T10:29:42.936Z,9.20
2018-06-13T10:32:14.147Z,8.90
2018-06-13T10:34:45.688Z,10.25
2018-06-13T10:37:16.968Z,9.55
2018-06-13T10:39:48.606Z,10.20
2018-06-13T10:42:19.800Z,9.20
2018-06-13T10:44:51.616Z,10.70
2018-06-13T10:47:23.180Z,11.60
2018-06-13T10:49:54.731Z,9.90
2018-06-13T10:52:26.300Z,9.98
2018-06-13T10:54:58.323Z,10.93
2018-06-13T10:57:30.669Z,10.93
2018-06-13T11:00:01.822Z,13.00
2018-06-13T11:02:33.128Z,11.20
2018-06-13T11:05:05.872Z,9.65
2018-06-13T11:07:37.544Z,9.80
2018-06-13T11:10:08.813Z,10.65
2018-06-13T11:12:40.030Z,9.28
2018-06-13T11:15:11.452Z,11.03
2018-06-13T11:17:42.949Z,9.93
2018-06-13T11:20:14.084Z,9.28
2018-06-13T11:22:45.430Z,9.68
2018-06-13T11:25:16.850Z,9.98
2018-06-13T11:27:48.159Z,9.23
2018-06-13T11:30:19.487Z,8.95
2018-06-13T11:32:51.020Z,9.08
2018-06-13T11:35:22.434Z,9.83
2018-06-13T11:37:53.769Z,9.88
2018-06-13T11:40:24.891Z,11.83
2018-06-13T11:42:56.200Z,10.45
2018-06-13T11:45:27.556Z,12.07
2018-06-13T11:47:58.732Z,7.92
2018-06-13T11:50:30.308Z,9.53
2018-06-13T11:53:01.950Z,13.18
2018-06-13T11:55:34.173Z,9.63
2018-06-13T11:58:05.465Z,9.30
2018-06-13T12:00:36.481Z,8.78
2018-06-13T12:03:07.927Z,9.90
2018-06-13T12:05:39.704Z,9.23
2018-06-13T12:08:10.874Z,8.20
2018-06-13T12:10:42.116Z,8.60
2018-06-13T12:13:13.644Z,10.32
2018-06-13T12:15:45.571Z,9.05
2018-06-13T12:18:17.742Z,7.85
2018-06-13T12:20:49.783Z,9.70
2018-06-13T12:23:21.094Z,8.93
2018-06-13T12:25:52.303Z,8.73
2018-06-13T12:28:23.465Z,9.13
2018-06-13T12:30:55.136Z,8.50
2018-06-13T12:33:26.572Z,9.38
2018-06-13T12:35:58.004Z,8.10
2018-06-13T12:38:29.469Z,11.10
2018-06-13T12:41:01.012Z,9.20
2018-06-13T12:43:32.420Z,9.30
2018-06-13T12:46:03.953Z,8.08
2018-06-13T12:48:35.032Z,8.23
2018-06-13T12:51:07.537Z,11.85
2018-06-13T12:53:39.012Z,6.97
2018-06-13T12:56:10.255Z,7.20
2018-06-13T12:58:41.432Z,10.28
2018-06-13T13:01:12.749Z,11.03
2018-06-13T13:03:44.203Z,13.62
2018-06-13T13:06:15.628Z,14.05
2018-06-13T13:08:47.076Z,13.53
2018-06-13T13:11:18.351Z,14.63
2018-06-13T13:13:50.661Z,18.32
2018-06-13T13:16:23.763Z,9.10
2018-06-13T13:18:59.392Z,8.13
2018-06-13T13:21:36.055Z,11.30
2018-06-13T13:24:08.066Z,9.95
2018-06-13T13:26:39.592Z,12.33
2018-06-13T13:29:11.086Z,12.90
2018-06-13T13:31:42.252Z,8.83
2018-06-13T13:34:13.478Z,10.88
2018-06-13T13:36:45.027Z,8.75
2018-06-13T13:39:16.717Z,10.20
2018-06-13T13:41:48.412Z,7.40
2018-06-13T13:44:19.754Z,9.35
2018-06-13T13:46:51.055Z,9.80
2018-06-13T13:49:23.024Z,12.10
2018-06-13T13:51:54.644Z,9.80
2018-06-13T13:54:26.652Z,9.10
2018-06-13T13:56:58.451Z,11.08
2018-06-13T13:59:30.390Z,9.78
2018-06-13T14:02:02.764Z,10.72
2018-06-13T14:04:34.448Z,8.55
2018-06-13T14:07:05.774Z,8.18
2018-06-13T14:09:37.255Z,12.45
2018-06-13T14:12:08.929Z,7.67
2018-06-13T14:14:40.256Z,10.58
2018-06-13T14:17:11.532Z,7.35
2018-06-13T14:19:42.911Z,7.75
2018-06-13T14:22:14.430Z,7.85
2018-06-13T14:24:45.454Z,7.67
2018-06-13T14:27:16.811Z,8.80
2018-06-13T14:29:48.185Z,7.50
2018-06-13T14:32:18.947Z,7.37
2018-06-13T14:34:50.147Z,7.45
2018-06-13T14:37:21.581Z,7.92
2018-06-13T14:39:52.948Z,7.78
2018-06-13T14:42:24.355Z,7.58
2018-06-13T14:44:55.630Z,7.97
2018-06-13T14:47:27.032Z,8.40
2018-06-13T14:49:58.425Z,7.45
2018-06-13T14:52:29.769Z,8.18
2018-06-13T14:55:01.183Z,7.62
2018-06-13T14:57:32.704Z,11.85
2018-06-13T15:00:04.047Z,10.65
2018-06-13T15:02:35.723Z,10.50
2018-06-13T15:05:07.280Z,12.10
2018-06-13T15:07:38.653Z,14.90
2018-06-13T15:10:10.487Z,15.72
2018-06-13T15:12:41.837Z,17.42
2018-06-13T15:15:13.072Z,17.92
2018-06-13T15:17:44.483Z,18.25
2018-06-13T15:20:15.977Z,18.07
2018-06-13T15:22:47.467Z,18.87
2018-06-13T15:25:18.903Z,19.35
2018-06-13T15:27:50.507Z,19.17
2018-06-13T15:30:21.793Z,19.75
2018-06-13T15:32:53.440Z,20.40
2018-06-13T15:35:24.629Z,20.57
2018-06-13T15:37:55.933Z,19.98
2018-06-13T15:40:27.340Z,21.33
2018-06-13T15:42:59.072Z,21.23
2018-06-13T15:45:30.621Z,21.40
2018-06-13T15:48:02.146Z,21.12
2018-06-13T15:50:33.465Z,20.12
2018-06-13T15:53:04.876Z,20.02
2018-06-13T15:55:36.117Z,21.97
2018-06-13T15:58:07.774Z,21.42
2018-06-13T16:00:39.231Z,21.57
2018-06-13T16:03:10.711Z,23.22
2018-06-13T16:05:42.264Z,21.55
2018-06-13T16:08:14.636Z,22.67
2018-06-13T16:10:46.057Z,24.43
2018-06-13T16:13:17.625Z,25.12
2018-06-13T16:15:49.402Z,23.12
2018-06-13T16:18:20.712Z,22.20
2018-06-13T16:20:52.302Z,22.27
2018-06-13T16:23:23.227Z,22.62
2018-06-13T16:25:54.935Z,24.45
2018-06-13T16:28:26.717Z,23.42
2018-06-13T16:30:58.088Z,23.20
2018-06-13T16:33:30.672Z,23.98
2018-06-13T16:36:01.865Z,25.68
2018-06-13T16:38:33.664Z,23.87
2018-06-13T16:41:05.583Z,25.97
2018-06-13T16:43:36.993Z,26.02
2018-06-13T16:46:08.679Z,25.65
2018-06-13T16:48:40.205Z,25.35
2018-06-13T16:51:27.272Z,26.23
2018-06-13T16:54:06.229Z,25.90
2018-06-13T16:56:37.803Z,23.90
2018-06-13T16:59:09.283Z,24.57
2018-06-13T17:01:40.734Z,23.32
2018-06-13T17:04:12.289Z,24.85
2018-06-13T17:06:43.607Z,24.60
2018-06-13T17:09:15.117Z,25.15
2018-06-13T17:11:46.405Z,25.65
2018-06-13T17:14:18.047Z,25.08
2018-06-13T17:16:49.438Z,26.33
2018-06-13T17:19:20.915Z,24.72
2018-06-13T17:21:52.884Z,25.17
2018-06-13T17:24:24.231Z,27.30
2018-06-13T17:26:56.568Z,24.63
2018-06-13T17:29:28.203Z,22.67
2018-06-13T17:31:59.348Z,23.90
2018-06-13T17:34:31.175Z,22.82
2018-06-13T17:37:02.687Z,24.00
2018-06-13T17:39:34.458Z,21.97
2018-06-13T17:42:05.784Z,22.10
2018-06-13T17:44:37.297Z,21.70
2018-06-13T17:47:08.575Z,25.68
2018-06-13T17:49:40.424Z,20.35
2018-06-13T17:52:11.844Z,22.37
2018-06-13T17:54:43.659Z,21.62
2018-06-13T17:57:15.044Z,20.77
2018-06-13T17:59:46.895Z,20.23
2018-06-13T18:02:18.219Z,20.17
2018-06-13T18:04:49.747Z,18.17
2018-06-13T18:07:21.221Z,19.32
2018-06-13T18:09:52.715Z,19.23
2018-06-13T18:12:24.001Z,21.33
2018-06-13T18:14:55.957Z,17.27
2018-06-13T18:17:27.980Z,20.00
2018-06-13T18:19:59.422Z,17.92
2018-06-13T18:22:31.208Z,17.67
2018-06-13T18:25:02.779Z,18.92
2018-06-13T18:27:34.400Z,16.55
2018-06-13T18:30:06.277Z,16.85
2018-06-13T18:32:38.118Z,19.20
2018-06-13T18:35:09.800Z,24.27
2018-06-13T18:37:41.774Z,21.12
2018-06-13T18:40:13.660Z,17.12
2018-06-13T18:42:44.971Z,17.60
2018-06-13T18:45:16.763Z,16.90
2018-06-13T18:47:48.349Z,16.40
2018-06-13T18:50:19.781Z,16.63
2018-06-13T18:52:51.221Z,18.05
2018-06-13T18:55:22.709Z,18.82
2018-06-13T18:57:54.175Z,17.13
2018-06-13T19:00:25.496Z,16.70
2018-06-13T19:02:57.185Z,17.17
2018-06-13T19:05:28.654Z,16.50
2018-06-13T19:08:00.334Z,17.27
2018-06-13T19:10:31.631Z,17.13
2018-06-13T19:13:03.247Z,16.93
2018-06-13T19:15:34.862Z,16.67
2018-06-13T19:18:06.431Z,16.17
2018-06-13T19:20:37.943Z,22.73
2018-06-13T19:23:09.910Z,16.23
2018-06-13T19:25:41.461Z,16.15
2018-06-13T19:28:13.624Z,15.53
2018-06-13T19:30:45.738Z,15.10
2018-06-13T19:33:17.392Z,18.13
2018-06-13T19:35:48.977Z,14.85
2018-06-13T19:38:20.593Z,14.90
2018-06-13T19:40:52.203Z,15.60
2018-06-13T19:43:28.428Z,14.90
2018-06-13T19:45:59.872Z,18.03
2018-06-13T19:48:36.386Z,13.83
2018-06-13T19:51:07.783Z,14.67
2018-06-13T19:53:44.097Z,14.53
2018-06-13T19:56:17.639Z,14.23
2018-06-13T19:58:49.138Z,16.17
2018-06-13T20:01:20.490Z,15.53
2018-06-13T20:03:57.364Z,16.27
2018-06-13T20:06:29.115Z,13.33
2018-06-13T20:09:00.583Z,14.77
2018-06-13T20:11:32.770Z,12.97
2018-06-13T20:14:09.076Z,14.57
2018-06-13T20:16:53.846Z,13.40
2018-06-13T20:19:31.201Z,13.43
2018-06-13T20:22:02.808Z,12.97
2018-06-13T20:24:34.036Z,13.43
2018-06-13T20:27:10.536Z,14.43
2018-06-13T20:29:47.335Z,14.33
2018-06-13T20:32:18.881Z,12.80
2018-06-13T20:34:50.667Z,13.73
2018-06-13T20:37:22.460Z,13.60
2018-06-13T20:39:54.153Z,11.93
2018-06-13T20:42:25.466Z,11.47
2018-06-13T20:44:56.867Z,11.33
2018-06-13T20:47:28.256Z,11.03
2018-06-13T20:49:59.888Z,11.57
2018-06-13T20:52:31.175Z,13.63
2018-06-13T20:55:02.513Z,10.27
2018-06-13T20:57:33.931Z,10.17
2018-06-13T21:00:05.700Z,9.73
2018-06-13T21:02:37.173Z,12.13
2018-06-13T21:05:08.310Z,9.90
2018-06-13T21:07:39.667Z,9.27
2018-06-13T21:10:11.755Z,8.97
2018-06-13T21:12:43.300Z,10.53
2018-06-13T21:15:14.692Z,12.73
2018-06-13T21:17:46.252Z,8.93
2018-06-13T21:20:17.473Z,8.53
2018-06-13T21:22:48.561Z,9.27
2018-06-13T21:25:19.732Z,9.13
2018-06-13T21:27:51.336Z,8.33
2018-06-13T21:30:22.890Z,9.73
2018-06-13T21:32:54.176Z,9.43
2018-06-13T21:35:25.421Z,9.03
2018-06-13T21:37:56.768Z,8.77
2018-06-13T21:40:28.287Z,8.57
2018-06-13T21:42:59.899Z,9.43
2018-06-13T21:45:31.231Z,9.43
2018-06-13T21:48:02.632Z,11.63
2018-06-13T21:50:34.149Z,10.23
2018-06-13T21:53:06.080Z,9.60
2018-06-13T21:55:37.907Z,9.27
2018-06-13T21:58:09.299Z,10.77
2018-06-13T22:00:40.934Z,12.67
2018-06-13T22:03:12.380Z,9.67
2018-06-13T22:05:44.112Z,8.43
2018-06-13T22:08:15.485Z,9.87
2018-06-13T22:10:46.709Z,10.77
2018-06-13T22:13:18.189Z,9.10
2018-06-13T22:15:49.323Z,8.73
2018-06-13T22:18:20.963Z,10.33
2018-06-13T22:20:52.467Z,8.70
2018-06-13T22:23:23.699Z,7.97
2018-06-13T22:25:55.097Z,8.57
2018-06-13T22:28:27.101Z,8.73
2018-06-13T22:30:58.364Z,8.53
2018-06-13T22:33:29.750Z,9.03
2018-06-13T22:36:01.224Z,10.80
2018-06-13T22:38:32.519Z,8.27
2018-06-13T22:41:03.743Z,8.90
2018-06-13T22:43:35.195Z,9.60
2018-06-13T22:46:06.951Z,8.50
2018-06-13T22:48:38.327Z,8.63
2018-06-13T22:51:09.724Z,8.27
2018-06-13T22:53:41.174Z,8.37
2018-06-13T22:56:12.537Z,8.60
2018-06-13T22:58:43.807Z,9.30
2018-06-13T23:01:15.009Z,8.53
2018-06-13T23:03:46.387Z,8.50
2018-06-13T23:06:17.829Z,8.93
2018-06-13T23:08:49.282Z,9.07
2018-06-13T23:11:20.735Z,9.27
2018-06-13T23:13:52.117Z,9.10
2018-06-13T23:16:23.632Z,9.10
2018-06-13T23:18:54.920Z,9.17
2018-06-13T23:21:26.237Z,9.03
2018-06-13T23:23:57.677Z,8.73
2018-06-13T23:26:28.955Z,9.73
2018-06-13T23:29:00.368Z,8.93
2018-06-13T23:31:31.897Z,8.60
2018-06-13T23:34:03.381Z,8.50
2018-06-13T23:36:35.371Z,8.33
2018-06-13T23:39:08.405Z,7.93
2018-06-13T23:41:39.735Z,7.70
2018-06-13T23:44:11.836Z,8.00
2018-06-13T23:46:43.962Z,10.57
2018-06-13T23:49:14.900Z,8.90
2018-06-13T23:51:46.675Z,8.27
2018-06-13T23:54:18.879Z,9.10
2018-06-13T23:56:50.987Z,7.83
2018-06-13T23:59:22.507Z,7.93
